Time;durP1;ratioP1;P1;durP2;ratioP2;P2;SDS_P1;SDS_P2;PMS_P1;PMS_P2;Temp;Humidity;BMP_temperature;BMP_pressure;BME280_temperature;BME280_humidity;BME280_pressure;Samples;Min_cycle;Max_cycle;Signal;HPM_P1;HPM_P2
2022/01/08 09:30:41;;;;;;;54.13;28.90;;;;;;;6.55;100.00;102863.31;4955201;29;20437;-94
2022/01/08 09:33:09;;;;;;;55.27;28.17;;;;;;;6.77;100.00;102877.00;4942077;28;20440;-84
2022/01/08 09:35:37;;;;;;;38.57;20.30;;;;;;;6.94;100.00;102882.00;4920452;29;20458;-84
2022/01/08 09:38:06;;;;;;;31.83;16.20;;;;;;;7.18;100.00;102883.81;4937808;29;20439;-90
2022/01/08 09:41:39;;;;;;;22.00;10.93;;;;;;;7.42;100.00;102878.34;4865784;29;20458;-90
2022/01/08 10:42:19;;;;;;;7.23;2.50;;;;;;;11.97;85.14;102867.84;4974405;28;20482;-93
2022/01/08 11:18:59;;;;;;;7.13;3.00;;;;;;;13.77;69.29;102831.84;4967847;28;20879;-90
2022/01/08 11:25:25;;;;;;;4.00;1.97;;;;;;;14.10;66.09;102818.25;4976509;28;20506;-92
2022/01/08 11:28:09;;;;;;;4.30;2.33;;;;;;;14.28;65.69;102832.75;4931355;28;20553;-91
2022/01/08 11:30:58;;;;;;;29.30;17.50;;;;;;;14.22;62.94;102827.94;4944605;28;20549;-90
2022/01/08 11:33:30;;;;;;;9.00;5.07;;;;;;;14.27;62.19;102817.28;4928105;28;20450;-89
2022/01/08 11:35:59;;;;;;;7.60;4.43;;;;;;;14.43;62.38;102828.34;4929901;28;20446;-90
2022/01/08 11:38:27;;;;;;;8.50;4.10;;;;;;;14.47;61.50;102818.72;4943721;28;20502;-90
2022/01/08 11:41:01;;;;;;;7.10;3.20;;;;;;;14.67;61.48;102829.44;4924511;29;20449;-90
2022/01/08 11:43:36;;;;;;;16.43;4.03;;;;;;;14.74;59.80;102836.00;4941170;28;20453;-94
2022/01/08 11:46:08;;;;;;;6.50;3.37;;;;;;;14.80;59.43;102818.81;4945092;28;20505;-91
2022/01/08 11:48:37;;;;;;;2.90;1.97;;;;;;;14.96;58.05;102823.44;4944297;28;20477;-91
2022/01/08 11:51:06;;;;;;;4.10;2.10;;;;;;;15.04;58.11;102815.16;4946742;28;20451;-90
2022/01/08 11:54:08;;;;;;;3.67;1.80;;;;;;;15.23;57.37;102820.31;4931868;28;20442;-91
2022/01/08 11:56:38;;;;;;;4.43;1.83;;;;;;;15.28;57.17;102806.03;4940846;29;20447;-91
2022/01/08 11:59:18;;;;;;;1.50;1.07;;;;;;;15.44;57.23;102808.75;4932474;28;20930;-91
2022/01/08 12:02:15;;;;;;;6.67;1.90;;;;;;;15.54;57.21;102806.69;4959951;28;20481;-92
2022/01/08 12:27:45;;;;;;;3.70;1.80;;;;;;;16.32;54.16;102762.59;4975985;28;20536;-91
2022/01/08 12:30:22;;;;;;;5.67;2.30;;;;;;;16.44;53.13;102766.63;4927627;28;20486;-91
2022/01/08 12:33:24;;;;;;;1.90;0.70;;;;;;;16.52;52.56;102758.31;4975625;28;20865;-90
2022/01/08 12:35:57;;;;;;;1.40;0.70;;;;;;;16.64;52.23;102746.84;4935362;28;20451;-92
2022/01/08 12:38:29;;;;;;;2.37;1.00;;;;;;;16.73;51.53;102751.28;4938814;29;20435;-88
2022/01/08 12:40:58;;;;;;;3.63;1.07;;;;;;;16.82;50.86;102752.91;4948671;28;20454;-87
2022/01/08 12:43:30;;;;;;;1.67;1.00;;;;;;;16.89;51.43;102742.84;4944464;29;20447;-86
2022/01/08 12:46:18;;;;;;;2.20;0.90;;;;;;;16.95;51.22;102725.50;4955537;29;20530;-87
2022/01/08 12:49:24;;;;;;;1.70;0.87;;;;;;;17.08;51.56;102734.03;4933960;28;20576;-87
2022/01/08 12:52:47;;;;;;;5.43;1.80;;;;;;;17.20;51.33;102720.59;4902711;29;20849;-87
2022/01/08 12:55:14;;;;;;;3.07;1.57;;;;;;;17.26;50.40;102706.03;4933582;29;20983;-87
2022/01/08 12:57:45;;;;;;;2.20;1.20;;;;;;;17.29;51.19;102682.69;4905355;29;20441;-87
2022/01/08 13:00:13;;;;;;;2.20;1.10;;;;;;;17.42;51.90;102688.41;4902290;29;21075;-86
2022/01/08 13:02:47;;;;;;;2.43;0.70;;;;;;;17.38;50.83;102664.94;4901716;29;20458;-87
2022/01/08 13:05:15;;;;;;;1.77;1.07;;;;;;;17.50;50.24;102680.00;4914242;29;21009;-88
2022/01/08 13:07:49;;;;;;;1.50;1.00;;;;;;;17.66;49.33;102679.81;4928725;29;20838;-87
2022/01/08 13:10:17;;;;;;;2.27;1.27;;;;;;;17.76;50.76;102666.53;4902035;29;20810;-87
2022/01/08 13:13:04;;;;;;;2.40;1.53;;;;;;;17.81;52.22;102655.75;4898750;29;21004;-87
2022/01/08 13:15:32;;;;;;;4.47;1.40;;;;;;;17.81;54.34;102641.91;4884235;29;20441;-88
2022/01/08 13:18:34;;;;;;;5.63;1.53;;;;;;;17.97;55.89;102653.78;4901741;29;21015;-87
2022/01/08 13:21:05;;;;;;;2.23;1.10;;;;;;;17.98;57.38;102655.50;4847017;29;20446;-87
2022/01/08 13:23:43;;;;;;;2.93;1.10;;;;;;;17.97;58.00;102651.03;4886303;29;20469;-87
2022/01/08 13:26:13;;;;;;;2.10;1.00;;;;;;;17.95;58.09;102652.06;4883099;29;20481;-87
2022/01/08 13:28:48;;;;;;;3.30;1.80;;;;;;;17.97;58.19;102648.25;4882733;29;20485;-87
2022/01/08 13:31:58;;;;;;;2.70;1.10;;;;;;;17.97;57.59;102649.13;4872773;29;20441;-86
2022/01/08 13:34:32;;;;;;;4.33;0.90;;;;;;;17.97;57.35;102646.34;4906321;29;20968;-87
2022/01/08 13:37:10;;;;;;;1.60;1.10;;;;;;;18.02;56.71;102651.31;4899578;29;20472;-88
2022/01/08 13:39:45;;;;;;;2.30;1.23;;;;;;;18.03;57.50;102631.75;4898823;29;20457;-87
2022/01/08 13:42:32;;;;;;;1.50;1.07;;;;;;;18.07;58.06;102630.28;4896934;29;20841;-87
2022/01/08 13:45:21;;;;;;;3.30;0.80;;;;;;;18.14;58.09;102641.41;4880873;29;20452;-87
2022/01/08 13:48:14;;;;;;;1.50;0.90;;;;;;;18.15;58.13;102634.81;4868724;29;20485;-87
2022/01/08 13:50:47;;;;;;;1.93;1.00;;;;;;;18.10;57.86;102626.25;4896361;29;20460;-88
2022/01/08 13:53:15;;;;;;;1.80;1.17;;;;;;;18.19;57.65;102638.91;4879576;29;20453;-88
2022/01/08 13:55:46;;;;;;;2.90;1.53;;;;;;;18.12;57.68;102619.47;4908749;29;20444;-88
2022/01/08 13:58:19;;;;;;;5.23;1.70;;;;;;;18.22;57.41;102625.53;4933531;28;20833;-88
2022/01/08 14:01:06;;;;;;;3.20;1.60;;;;;;;18.19;57.61;102625.06;4940331;28;20454;-87
2022/01/08 14:03:45;;;;;;;7.73;1.37;;;;;;;18.19;57.61;102633.38;4928046;28;20451;-88
2022/01/08 14:06:24;;;;;;;5.50;1.00;;;;;;;18.19;57.19;102619.53;4925398;28;20482;-88
2022/01/08 14:08:53;;;;;;;2.60;1.37;;;;;;;18.16;56.64;102615.25;4924062;28;20485;-88
2022/01/08 14:11:24;;;;;;;3.30;1.80;;;;;;;18.12;56.43;102611.16;4954597;28;20509;-87
2022/01/08 14:13:58;;;;;;;1.70;1.10;;;;;;;18.18;55.89;102613.16;4946771;28;20473;-93
2022/01/08 14:16:36;;;;;;;3.57;1.50;;;;;;;18.24;56.32;102611.50;4938088;28;20450;-91
2022/01/08 14:19:08;;;;;;;4.03;1.23;;;;;;;18.24;55.74;102605.97;4925845;28;20479;-91
2022/01/08 14:21:36;;;;;;;2.53;1.37;;;;;;;18.30;56.55;102610.69;4917475;28;20439;-92
2022/01/08 14:24:54;;;;;;;5.23;1.73;;;;;;;18.31;56.63;102606.88;4945090;28;20896;-95
2022/01/08 14:27:44;;;;;;;5.10;2.93;;;;;;;18.29;57.11;102597.91;4951648;28;20475;-93
2022/01/08 14:31:18;;;;;;;8.20;2.13;;;;;;;18.27;57.90;102595.38;4912300;29;20836;-91
2022/01/08 14:34:08;;;;;;;4.30;1.30;;;;;;;18.26;58.53;102599.19;4922026;29;20452;-90
2022/01/08 14:36:48;;;;;;;5.50;3.03;;;;;;;18.25;59.36;102600.25;4944885;28;20440;-91
2022/01/08 14:39:39;;;;;;;8.97;4.97;;;;;;;18.24;59.58;102590.22;4926418;29;20443;-94
2022/01/08 14:42:18;;;;;;;17.80;4.13;;;;;;;18.17;60.38;102578.22;4924186;29;20459;-95
2022/01/08 14:45:07;;;;;;;10.50;3.43;;;;;;;18.25;59.83;102596.63;4923911;29;20454;-94
2022/01/08 14:48:00;;;;;;;6.30;3.10;;;;;;;18.26;59.87;102603.88;4933487;29;20485;-94
2022/01/08 14:50:31;;;;;;;6.23;2.00;;;;;;;18.13;59.48;102576.03;4927317;29;20414;-95
2022/01/08 14:53:17;;;;;;;9.63;3.70;;;;;;;18.20;59.76;102594.44;4929805;29;20455;-94
2022/01/08 14:56:19;;;;;;;12.33;5.63;;;;;;;18.32;60.87;102605.81;4911462;29;20543;-94
2022/01/08 14:59:27;;;;;;;10.07;3.93;;;;;;;18.35;60.97;102608.19;4938778;29;20556;-95
2022/01/08 15:05:38;;;;;;;7.60;4.27;;;;;;;18.28;60.77;102587.88;4957165;28;20430;-95
2022/01/08 15:08:28;;;;;;;6.70;2.20;;;;;;;18.29;60.70;102596.00;4909756;29;20841;-95
2022/01/08 15:11:33;;;;;;;15.90;3.27;;;;;;;18.22;60.92;102585.94;4926199;29;20482;-94
2022/01/08 15:14:21;;;;;;;14.93;3.80;;;;;;;18.18;61.48;102585.47;4941162;29;20459;-95
2022/01/08 15:20:35;;;;;;;14.60;3.50;;;;;;;18.17;62.20;102582.91;4957626;28;20925;-95
2022/01/08 15:26:58;;;;;;;25.60;4.80;;;;;;;18.10;63.10;102566.22;4958127;29;20478;-94
2022/01/08 15:38:04;;;;;;;14.67;5.83;;;;;;;18.02;65.07;102562.75;4976811;28;20425;-95
2022/01/08 15:40:57;;;;;;;23.30;5.70;;;;;;;17.98;65.56;102561.44;4944820;28;20945;-95
2022/01/08 15:43:32;;;;;;;23.20;6.97;;;;;;;17.96;65.72;102556.09;4926976;29;20942;-92
2022/01/08 15:46:18;;;;;;;18.80;5.77;;;;;;;17.86;66.28;102534.31;4925521;29;20571;-92
2022/01/08 15:49:00;;;;;;;17.97;7.07;;;;;;;17.86;66.95;102536.22;4956464;29;20483;-93
2022/01/08 15:51:42;;;;;;;25.80;6.53;;;;;;;17.84;67.78;102539.19;4924304;28;20446;-92
2022/01/08 15:54:21;;;;;;;28.87;7.07;;;;;;;17.73;68.48;102525.00;4944544;28;20530;-93
2022/01/08 15:56:49;;;;;;;30.97;7.77;;;;;;;17.74;68.75;102532.25;4956506;28;20522;-90
2022/01/08 15:59:20;;;;;;;32.97;6.43;;;;;;;17.77;69.71;102549.31;4929871;28;20451;-90
2022/01/08 16:05:50;;;;;;;17.03;5.77;;;;;;;17.60;70.21;102539.53;4974780;28;20429;-95
2022/01/08 16:15:58;;;;;;;21.83;6.10;;;;;;;17.44;73.11;102523.19;4976330;28;20505;-94
2022/01/08 16:18:53;;;;;;;21.97;5.73;;;;;;;17.41;73.46;102531.88;4971820;28;20446;-94
2022/01/08 16:25:32;;;;;;;11.50;3.63;;;;;;;17.16;73.68;102540.50;4976777;28;20449;-92
2022/01/08 16:28:12;;;;;;;13.17;4.30;;;;;;;17.09;74.27;102550.63;4941490;28;20482;-93
2022/01/08 16:31:30;;;;;;;9.90;4.07;;;;;;;16.99;74.93;102541.75;4939205;29;20529;-94
2022/01/08 16:34:05;;;;;;;7.43;2.47;;;;;;;16.79;75.03;102521.31;4959059;28;20439;-94
2022/01/08 16:36:48;;;;;;;13.20;3.60;;;;;;;16.67;75.63;102517.31;4958770;28;20453;-94
2022/01/08 16:39:45;;;;;;;9.10;3.27;;;;;;;16.63;76.35;102527.88;4940181;28;20446;-93
2022/01/08 16:42:34;;;;;;;11.60;3.30;;;;;;;16.48;77.14;102538.03;4939928;29;20510;-92
2022/01/08 16:45:17;;;;;;;11.70;3.20;;;;;;;16.22;77.38;102524.66;4955778;28;20451;-92
2022/01/08 16:48:04;;;;;;;11.80;3.30;;;;;;;16.07;78.31;102540.34;4939568;28;20582;-92
2022/01/08 16:50:48;;;;;;;26.10;4.90;;;;;;;15.97;79.21;102554.38;4926769;28;20478;-92
2022/01/08 16:53:26;;;;;;;11.47;3.63;;;;;;;15.78;80.16;102554.88;4944767;28;20505;-92
2022/01/08 17:00:07;;;;;;;24.10;9.50;;;;;;;15.19;82.49;102566.41;4956472;29;20414;-94
2022/01/08 17:02:40;;;;;;;27.80;9.27;;;;;;;15.01;83.51;102565.78;4951373;28;20481;-94
2022/01/08 17:05:09;;;;;;;36.83;9.13;;;;;;;14.83;84.50;102566.03;4934464;28;20455;-95
2022/01/08 17:08:17;;;;;;;35.23;10.30;;;;;;;14.88;84.92;102582.00;4938961;28;20447;-95
2022/01/08 17:10:57;;;;;;;46.03;10.30;;;;;;;14.75;85.68;102581.72;4957704;28;20446;-92
2022/01/08 17:14:03;;;;;;;64.07;16.90;;;;;;;14.68;87.24;102588.94;4923284;29;20447;-94
2022/01/08 17:17:24;;;;;;;38.43;12.30;;;;;;;14.58;87.64;102589.16;4957010;28;20442;-94
2022/01/08 17:19:52;;;;;;;30.77;8.70;;;;;;;14.37;88.90;102566.81;4953998;28;20674;-93
2022/01/08 17:22:27;;;;;;;29.57;7.77;;;;;;;14.35;88.95;102571.63;4933228;29;20451;-93
2022/01/08 17:25:01;;;;;;;28.23;6.97;;;;;;;14.29;89.55;102581.41;4940956;28;20472;-93
2022/01/08 17:27:53;;;;;;;22.20;7.10;;;;;;;14.21;89.56;102581.44;4915054;29;21013;-94
2022/01/08 17:30:23;;;;;;;15.80;5.20;;;;;;;14.11;89.68;102586.25;4945346;28;20485;-95
2022/01/08 17:33:39;;;;;;;29.00;7.83;;;;;;;14.03;89.97;102583.50;4942047;28;20450;-94
2022/01/08 21:56:24;;;;;;;19.20;8.23;;;;;;;7.62;100.00;102682.56;4887972;29;20442;-92
2022/01/08 22:00:08;;;;;;;;;;;;;;;;;;;;;
2022/01/08 22:02:56;;;;;;;13.30;5.10;;;;;;;7.35;99.42;102673.94;4800446;29;20479;-89
2022/01/08 22:06:07;;;;;;;13.90;7.00;;;;;;;7.29;99.76;102669.03;4826237;29;20471;-90
2022/01/08 22:08:55;;;;;;;28.73;15.30;;;;;;;7.38;99.85;102686.44;4817698;29;20491;-89
2022/01/08 22:22:41;;;;;;;30.00;16.10;;;;;;;6.98;99.53;102665.19;4851257;29;20452;-90
2022/01/08 22:25:12;;;;;;;20.30;9.33;;;;;;;7.02;99.28;102673.97;4860593;29;20471;-90
2022/01/08 22:28:10;;;;;;;15.43;7.30;;;;;;;7.10;99.66;102701.41;4855222;29;20503;-90
2022/01/08 22:31:01;;;;;;;14.97;7.10;;;;;;;6.92;99.30;102679.28;4875827;29;20465;-91
2022/01/08 22:33:40;;;;;;;13.57;7.60;;;;;;;6.94;99.80;102686.31;4924801;29;20448;-90
2022/01/08 22:36:10;;;;;;;20.30;10.17;;;;;;;6.88;99.89;102675.94;4922578;29;20547;-90
2022/01/08 22:38:38;;;;;;;19.47;9.07;;;;;;;6.95;100.00;102695.31;4930407;29;20802;-90
2022/01/08 22:48:50;;;;;;;8.93;3.67;;;;;;;6.73;98.48;102673.59;4974340;28;20469;-88
2022/01/08 23:08:22;;;;;;;9.17;5.30;;;;;;;6.44;98.67;102706.59;4842117;29;20783;-93
2022/01/08 23:18:49;;;;;;;16.57;7.67;;;;;;;6.25;99.50;102709.00;4845345;29;20430;-93
2022/01/08 23:21:29;;;;;;;12.60;6.03;;;;;;;6.16;99.37;102699.69;4846233;29;20444;-96
2022/01/08 23:43:40;;;;;;;14.03;7.93;;;;;;;6.05;99.32;102713.22;4938985;29;20403;-95
2022/01/08 23:50:59;;;;;;;15.13;6.77;;;;;;;5.79;98.54;102673.59;4948139;29;20502;-94
2022/01/08 23:58:07;;;;;;;10.20;5.23;;;;;;;5.62;97.69;102676.69;4935081;28;20513;-94
